Model City, NY (14107)

4:45 PM EST on December 09, 2016 (GMT -0500)
Hillview Court | | Change Station

Elev 406 ft 43.17 °N, 79.02 °W | Updated 25 seconds ago

Mostly Cloudy
Mostly Cloudy
32.0 °F
Feels Like 27 °F
N
5.0
Wind Variable Wind from West
Gusts 9.9 mph

Today
High -- | Low -- °F
--% Chance of Precip.
Yesterday
High -- | Low -- °F
Precip. -- in
Pressure 30.32 in
Visibility 10.0 miles
Clouds Few 3600 ft
Mostly Cloudy 6000 ft
Windchill 27 °F
Dew Point 21 °F
Humidity 63%
Rainfall Not available.
Snow Depth Not available.
7:36 AM 4:40 PM
Waxing Gibbous, 77% visible
METAR KIAG 092053Z 28015G23KT 10SM FEW036 BKN060 M01/M09 A3027 RMK AO2 SLP266 T10111094 53011
Pressure 30.32 in
Visibility 10.0 miles
Clouds Few 3600 ft
Mostly Cloudy 6000 ft
Windchill 27 °F
Dew Point 21 °F
Humidity 63%
Rainfall Not available.
Snow Depth Not available.
7:36 AM 4:40 PM
Waxing Gibbous, 77% visible
METAR KIAG 092053Z 28015G23KT 10SM FEW036 BKN060 M01/M09 A3027 RMK AO2 SLP266 T10111094 53011

10-Day Weather Forecast

Almanac

Astronomy

Dec. 09, 2016 Rise Set
Actual Time
Civil Twilight
Nautical Twilight
Astronomical Twilight
Moon
Length of Visible Light
Length of Day
Tomorrow will be .
, % of the Moon is Illuminated

Today's Extremes

State Highs State Lows

Community

WunderPhotos

Upload Photos

1,956,517 photos uploaded!

WunderBlog® & News

Nearby

Air Quality

  Air Quality AQ Index Pollutant
Not available.

Snow Depth

Station Depth Elevation

Earthquake Activity

City Distance Mag. Time & Date
Minimum magnitude displayed is 2.5.

Coastal Water Temperatures

Place Temperature

Stations

Nearby Weather Stations

Station Location Temp. Windchill Dew Point Humidity Wind Precip. Elev Updated Type
                   

Watches & Warnings

There are currently no watches in effect.